SKLT/LET METAR and TAF weather

Enter ICAO airport designator
Station Type Date Time Source
SKLT METAR 2020/11/27 02:00 UTC NOAA

SKLT 270200Z VRB02KT 9999 FEW015 SCT200 23/23 A2979


Station Type Date Time Source
SKLT Decoded METAR 2020/11/27 02:00 UTC NOAA

Leticia / Vasquez Cobo, Colombia (SKLT) 04-10S 069-57W 84M
Nov 26, 2020 - 09:00 PM EST / 2020.11.27 0200 UTC
Wind: Variable at 2 MPH (2 KT):0
Visibility: greater than 7 mile(s):0
Sky conditions: partly cloudy
Temperature: 73 F (23 C)
Dew Point: 73 F (23 C)
Relative Humidity: 100%
Pressure (altimeter): 29.79 in. Hg (1008 hPa)
ob: SKLT 270200Z VRB02KT 9999 FEW015 SCT200 23/23 A2979
cycle: 2

Station Type Date Time Source
SKLT TAF 2020/11/26 18:53 UTC NOAA

TAF SKLT 261630Z 2618/2718 32006KT 9999 SCT015 BKN080
TEMPO 2618/2621 5000 TSRA BKN010CB
TEMPO 2709/2712 5000 DZRA BKN010 PROB40
TEMPO 2715/2718 4000 TSRA BKN015CB TX30/2618Z TN22/2710Z

Example: see airport list